createdAt,value
2023-03-22T00:03:11.597Z,92.40
2023-03-22T00:13:18.865Z,101.20
2023-03-22T00:23:26.968Z,97.90
2023-03-22T00:33:34.964Z,82.40
2023-03-22T00:43:42.474Z,86.30
2023-03-22T00:53:49.197Z,95.00
2023-03-22T01:03:56.503Z,94.60
2023-03-22T01:14:04.034Z,101.10
2023-03-22T01:24:11.601Z,104.00
2023-03-22T01:34:18.847Z,106.00
2023-03-22T01:44:27.213Z,103.30
2023-03-22T01:54:36.239Z,111.80
2023-03-22T02:04:43.569Z,116.20
2023-03-22T02:14:59.364Z,111.20
2023-03-22T02:25:22.466Z,99.40
2023-03-22T02:35:39.758Z,97.10
2023-03-22T02:45:46.804Z,113.10
2023-03-22T02:55:51.993Z,119.00
2023-03-22T03:06:04.478Z,120.70
2023-03-22T03:16:17.706Z,115.10
2023-03-22T03:26:22.866Z,109.60
2023-03-22T03:36:33.789Z,108.90
2023-03-22T03:46:42.059Z,115.60
2023-03-22T03:56:49.893Z,132.90
2023-03-22T04:06:56.980Z,111.50
2023-03-22T04:17:05.743Z,108.20
2023-03-22T04:27:12.013Z,98.00
2023-03-22T04:37:22.713Z,108.40
2023-03-22T04:47:29.861Z,96.70
2023-03-22T04:57:37.106Z,95.70
2023-03-22T05:07:44.222Z,93.80
2023-03-22T05:17:51.443Z,92.40
2023-03-22T05:28:02.092Z,90.40
2023-03-22T05:38:10.878Z,101.50
2023-03-22T05:58:25.462Z,96.30
2023-03-22T06:08:32.501Z,96.00
2023-03-22T06:18:39.726Z,90.60
2023-03-22T06:28:47.389Z,96.10
2023-03-22T06:38:54.708Z,86.50
2023-03-22T06:49:01.806Z,93.90
2023-03-22T06:59:08.225Z,88.10
2023-03-22T07:19:21.897Z,86.90
2023-03-22T07:29:28.193Z,82.10
2023-03-22T07:39:35.657Z,83.40
2023-03-22T07:49:43.317Z,80.00
2023-03-22T07:59:50.590Z,71.70
2023-03-22T08:09:58.430Z,73.40
2023-03-22T08:20:09.370Z,66.30
2023-03-22T08:30:18.095Z,64.50
2023-03-22T08:40:25.509Z,60.60
2023-03-22T08:50:32.468Z,59.90
2023-03-22T09:00:48.476Z,55.60
2023-03-22T09:10:56.614Z,51.30
2023-03-22T09:21:03.802Z,50.50
2023-03-22T09:31:12.189Z,46.20
2023-03-22T09:41:21.192Z,40.90
2023-03-22T09:51:30.492Z,45.90
2023-03-22T10:01:37.827Z,44.90
2023-03-22T10:11:45.719Z,43.30
2023-03-22T10:21:56.841Z,35.80
2023-03-22T10:32:03.699Z,41.50
2023-03-22T10:42:13.416Z,34.80
2023-03-22T10:52:24.455Z,23.50
2023-03-22T11:02:34.087Z,30.50
2023-03-22T11:12:42.485Z,20.50
2023-03-22T11:22:52.241Z,19.30
2023-03-22T11:33:15.930Z,19.80
2023-03-22T11:43:25.860Z,16.40
2023-03-22T11:53:38.383Z,13.90
2023-03-22T12:03:49.559Z,13.40
2023-03-22T12:14:03.410Z,21.50
2023-03-22T12:24:18.236Z,16.20
2023-03-22T12:34:34.063Z,15.60
2023-03-22T12:44:43.295Z,19.80
2023-03-22T12:54:53.161Z,13.00
2023-03-22T13:05:02.463Z,14.30
2023-03-22T13:15:38.816Z,13.50
2023-03-22T13:25:59.270Z,11.20
2023-03-22T13:36:07.358Z,10.90
2023-03-22T13:56:30.096Z,9.30
2023-03-22T14:06:43.865Z,9.70
2023-03-22T14:16:53.958Z,12.30
